Time;durP1;ratioP1;P1;durP2;ratioP2;P2;SDS_P1;SDS_P2;PMS_P1;PMS_P2;Temp;Humidity;BMP_temperature;BMP_pressure;BME280_temperature;BME280_humidity;BME280_pressure;Samples;Min_cycle;Max_cycle;Signal;HPM_P1;HPM_P2
2022/01/03 00:03:55;;;;;;;;;;;11.00;99.90;;;10.18;60.79;95702.63;10286082;28;1895;-75
2022/01/03 00:08:58;;;;;;;;;;;11.30;99.90;;;10.12;61.51;95699.19;10279197;28;1850;-74
2022/01/03 00:14:01;;;;;;;;;;;11.00;99.90;;;10.11;62.14;95702.91;10278226;28;1834;-74
2022/01/03 00:19:04;;;;;;;;;;;11.20;99.90;;;10.11;62.81;95686.81;10280191;28;1998;-74
2022/01/03 00:24:07;;;;;;;;;;;11.00;99.90;;;9.99;63.47;95675.59;10282840;28;1918;-74
2022/01/03 00:29:11;;;;;;;;;;;11.00;99.90;;;10.03;63.92;95661.31;10272202;28;1952;-75
2022/01/03 00:34:14;;;;;;;;;;;11.10;99.90;;;9.97;65.16;95669.66;10282104;28;2281;-76
2022/01/03 00:39:17;;;;;;;;;;;10.60;99.90;;;9.86;66.13;95676.94;10277010;28;2863;-75
2022/01/03 00:44:19;;;;;;;;;;;10.80;99.90;;;9.81;66.82;95682.31;10282026;28;1916;-75
2022/01/03 00:49:22;;;;;;;;;;;10.80;99.90;;;9.78;67.54;95695.47;10278204;28;2179;-75
2022/01/03 00:54:26;;;;;;;;;;;10.70;99.90;;;9.72;68.63;95689.28;10277647;28;2244;-74
2022/01/03 00:59:30;;;;;;;;;;;10.70;99.90;;;9.71;68.70;95696.53;10277476;28;1911;-75
2022/01/03 01:04:33;;;;;;;;;;;10.20;99.90;;;9.59;69.94;95685.28;10279054;28;1906;-75
2022/01/03 01:09:36;;;;;;;;;;;10.60;99.90;;;9.57;70.72;95690.09;10280138;28;1833;-75
2022/01/03 01:14:39;;;;;;;;;;;10.50;99.90;;;9.52;71.19;95676.69;10278945;28;1830;-73
2022/01/03 01:19:43;;;;;;;;;;;10.40;99.90;;;9.57;70.94;95673.22;10274689;28;1955;-75
2022/01/03 01:24:50;;;;;;;;;;;10.50;99.90;;;9.59;71.71;95671.84;10277587;28;2028;-75
2022/01/03 01:29:53;;;;;;;;;;;10.50;99.90;;;9.60;71.50;95669.97;10275596;28;2007;-75
2022/01/03 01:34:57;;;;;;;;;;;10.60;99.90;;;9.49;72.08;95679.91;10275507;28;2185;-75
2022/01/03 01:40:00;;;;;;;;;;;10.70;99.90;;;9.45;72.41;95673.47;10278076;28;2012;-75
2022/01/03 01:45:07;;;;;;;;;;;10.40;99.90;;;9.66;70.93;95664.31;10280198;28;1841;-75
2022/01/03 01:50:11;;;;;;;;;;;10.50;99.90;;;9.65;71.21;95676.13;10277426;28;1888;-76
2022/01/03 01:55:14;;;;;;;;;;;9.40;99.90;;;9.79;70.91;95671.03;10275502;28;2198;-75
2022/01/03 02:00:17;;;;;;;;;;;9.80;99.90;;;9.87;70.77;95675.88;10278038;28;2206;-75
2022/01/03 02:05:21;;;;;;;;;;;10.80;99.90;;;9.69;72.22;95658.44;10280215;28;1816;-75
2022/01/03 02:10:25;;;;;;;;;;;11.10;99.90;;;9.73;72.18;95672.94;10276612;28;1923;-75
2022/01/03 02:15:28;;;;;;;;;;;10.60;99.90;;;9.71;72.38;95658.16;10276901;28;1959;-75
2022/01/03 02:20:32;;;;;;;;;;;10.60;99.90;;;9.72;71.92;95662.44;10279554;28;1942;-76
2022/01/03 02:25:38;;;;;;;;;;;;;;;9.65;72.28;95646.63;10279638;28;2293;-75
2022/01/03 02:30:41;;;;;;;;;;;10.60;99.90;;;9.74;71.69;95628.09;10275459;28;1920;-75
2022/01/03 02:35:45;;;;;;;;;;;10.60;99.90;;;9.76;71.75;95647.41;10277346;28;1818;-75
2022/01/03 02:40:48;;;;;;;;;;;10.70;99.90;;;9.73;71.86;95654.16;10312790;23;2123;-73
2022/01/03 02:45:51;;;;;;;;;;;10.60;99.90;;;9.70;72.37;95648.50;10396780;28;1951;-74
2022/01/03 02:50:54;;;;;;;;;;;10.60;99.90;;;9.78;71.61;95644.47;10392545;28;1848;-73
2022/01/03 02:55:58;;;;;;;;;;;10.60;99.90;;;9.78;72.11;95649.81;10394532;28;1789;-73
2022/01/03 03:01:01;;;;;;;;;;;10.70;99.90;;;9.83;71.45;95674.78;10396629;28;1926;-73
2022/01/03 03:06:05;;;;;;;;;;;10.60;99.90;;;9.80;71.95;95679.88;10399472;28;1876;-73
2022/01/03 03:11:08;;;;;;;;;;;10.70;99.90;;;9.79;72.14;95670.22;10386098;28;1799;-74
2022/01/03 03:16:11;;;;;;;;;;;10.80;99.90;;;9.73;72.81;95675.63;10397891;28;1837;-73
2022/01/03 03:21:14;;;;;;;;;;;10.60;99.90;;;9.74;72.81;95669.16;10386703;28;1981;-73
2022/01/03 03:26:19;;;;;;;;;;;10.50;99.90;;;9.75;73.04;95661.91;10402197;28;1858;-73
2022/01/03 03:31:23;;;;;;;;;;;;;;;9.70;73.53;95657.34;10399126;28;1454;-73
2022/01/03 03:36:26;;;;;;;;;;;10.70;99.90;;;9.71;73.55;95658.16;10396426;28;1430;-73
2022/01/03 03:41:29;;;;;;;;;;;10.60;99.90;;;9.73;74.05;95658.69;10393604;28;1916;-73
2022/01/03 03:46:32;;;;;;;;;;;10.50;99.90;;;9.75;73.97;95668.09;10397179;28;1999;-74
2022/01/03 03:51:38;;;;;;;;;;;10.60;99.90;;;9.72;73.77;95670.50;10403042;28;1961;-74
2022/01/03 03:56:41;;;;;;;;;;;10.50;99.90;;;9.72;74.04;95673.19;10397764;28;1972;-74
2022/01/03 04:01:45;;;;;;;;;;;10.70;99.90;;;9.67;74.22;95687.44;10399814;28;1973;-74
2022/01/03 04:06:48;;;;;;;;;;;10.50;99.90;;;9.73;73.68;95686.34;10391593;28;1897;-73
2022/01/03 04:11:51;;;;;;;;;;;10.60;99.90;;;9.76;73.47;95685.00;10397987;28;1877;-76
2022/01/03 04:16:55;;;;;;;;;;;10.60;99.90;;;9.68;73.88;95680.19;10403920;28;1897;-73
2022/01/03 04:21:58;;;;;;;;;;;10.60;99.90;;;9.68;74.16;95686.34;10398954;28;1918;-74
2022/01/03 04:27:01;;;;;;;;;;;10.50;99.90;;;9.68;74.19;95685.56;10400219;28;1849;-73
2022/01/03 04:32:05;;;;;;;;;;;10.60;99.90;;;9.71;73.77;95677.75;10388218;28;1758;-73
2022/01/03 04:37:08;;;;;;;;;;;10.60;99.90;;;9.77;73.99;95677.75;10396683;28;1774;-74
2022/01/03 04:42:11;;;;;;;;;;;10.50;99.90;;;9.70;73.81;95673.47;10387138;28;1919;-74
2022/01/03 04:47:14;;;;;;;;;;;10.50;99.90;;;9.72;73.92;95683.91;10398667;28;1952;-74
2022/01/03 04:52:22;;;;;;;;;;;10.50;99.90;;;9.72;73.84;95683.91;10392423;28;1855;-74
2022/01/03 04:57:25;;;;;;;;;;;10.60;99.90;;;9.69;73.73;95679.91;10391910;28;1852;-74
2022/01/03 05:02:27;;;;;;;;;;;10.60;99.90;;;9.73;73.77;95690.91;10399274;28;1977;-74
2022/01/03 05:07:31;;;;;;;;;;;10.60;99.90;;;9.66;74.19;95701.91;10394803;28;1860;-73
2022/01/03 05:12:34;;;;;;;;;;;10.50;99.90;;;9.68;73.91;95689.03;10398880;28;1855;-73
2022/01/03 05:17:38;;;;;;;;;;;10.50;99.90;;;9.69;73.95;95701.38;10397902;28;1855;-73
2022/01/03 05:22:41;;;;;;;;;;;10.50;99.90;;;9.65;74.03;95689.56;10404813;28;1969;-74
2022/01/03 05:27:44;;;;;;;;;;;10.50;99.90;;;9.66;73.61;95714.53;10413068;28;1929;-74
2022/01/03 05:32:47;;;;;;;;;;;10.50;99.90;;;9.69;73.64;95716.69;10395250;28;1894;-74
2022/01/03 05:37:50;;;;;;;;;;;10.50;99.90;;;9.65;73.28;95715.59;10400159;28;1818;-72
2022/01/03 05:42:54;;;;;;;;;;;10.50;99.90;;;9.59;73.78;95712.09;10402499;28;1910;-73
2022/01/03 05:48:01;;;;;;;;;;;10.50;99.90;;;9.60;73.18;95712.91;10390830;28;1856;-72
2022/01/03 05:53:04;;;;;;;;;;;10.40;99.90;;;9.54;73.78;95722.03;10389364;28;2026;-76
2022/01/03 05:58:07;;;;;;;;;;;10.40;99.90;;;9.52;74.00;95730.34;10394919;28;1849;-76
2022/01/03 06:03:10;;;;;;;;;;;10.40;99.90;;;9.46;73.69;95734.91;10398657;28;1922;-73
2022/01/03 06:08:13;;;;;;;;;;;10.30;99.90;;;9.49;72.84;95736.28;10394517;28;1810;-75
2022/01/03 06:13:17;;;;;;;;;;;10.40;99.90;;;9.44;73.49;95733.56;10394160;28;1919;-74
2022/01/03 06:18:20;;;;;;;;;;;10.30;99.90;;;9.41;73.33;95731.41;10395082;28;1789;-75
2022/01/03 06:23:23;;;;;;;;;;;10.30;99.90;;;9.33;73.71;95731.94;10390621;28;1977;-73
2022/01/03 06:28:26;;;;;;;;;;;10.30;99.90;;;9.30;73.66;95729.81;10395588;28;1864;-74
2022/01/03 06:33:30;;;;;;;;;;;10.20;99.90;;;9.23;74.22;95726.59;10392432;28;1849;-73
2022/01/03 06:38:33;;;;;;;;;;;10.10;99.90;;;9.21;74.57;95733.00;10391771;28;1931;-74
2022/01/03 06:43:36;;;;;;;;;;;10.10;99.90;;;9.19;74.78;95728.97;10386185;28;1970;-75
2022/01/03 06:48:39;;;;;;;;;;;10.10;99.90;;;9.16;74.92;95732.19;10393349;28;1718;-75
2022/01/03 06:53:42;;;;;;;;;;;10.10;99.90;;;9.13;74.88;95736.22;10398128;28;1852;-76
2022/01/03 06:58:46;;;;;;;;;;;10.10;99.90;;;9.10;75.48;95741.31;10397128;28;1822;-74
2022/01/03 07:03:49;;;;;;;;;;;10.10;99.90;;;9.08;75.71;95738.88;10403996;28;1968;-76
2022/01/03 07:08:52;;;;;;;;;;;10.10;99.90;;;9.06;75.79;95741.03;10402324;28;1727;-77
2022/01/03 07:14:06;;;;;;;;;;;10.00;99.90;;;9.08;75.23;95754.97;10420535;28;10966;-77
2022/01/03 07:19:09;;;;;;;;;;;10.00;99.90;;;9.06;75.84;95740.22;10443286;28;1856;-77
2022/01/03 07:24:12;;;;;;;;;;;10.00;99.90;;;9.09;75.15;95751.19;10446236;28;1902;-78
2022/01/03 07:29:15;;;;;;;;;;;10.00;99.90;;;9.14;74.66;95753.91;10447137;28;1921;-78
2022/01/03 07:34:18;;;;;;;;;;;10.00;99.90;;;9.18;74.44;95749.63;10445234;28;1788;-75
2022/01/03 07:39:21;;;;;;;;;;;10.00;99.90;;;9.23;74.16;95738.13;10460192;28;1808;-76
2022/01/03 07:44:33;;;;;;;;;;;10.10;99.90;;;9.26;73.14;95748.31;10448298;28;1910;-77
2022/01/03 07:49:37;;;;;;;;;;;10.10;99.90;;;9.29;72.48;95741.59;10436833;28;1777;-75
2022/01/03 07:54:40;;;;;;;;;;;10.10;99.90;;;9.38;71.80;95742.69;10478433;28;1770;-75
2022/01/03 07:59:43;;;;;;;;;;;10.20;99.90;;;9.38;72.37;95746.19;10453626;28;1805;-74
2022/01/03 08:04:46;;;;;;;;;;;10.20;99.90;;;9.42;71.30;95733.03;10446080;28;2024;-76
2022/01/03 08:09:49;;;;;;;;;;;10.30;99.90;;;9.47;71.56;95730.34;10437870;28;1484;-77
2022/01/03 08:14:52;;;;;;;;;;;10.20;99.90;;;9.51;71.59;95733.31;10448480;28;2327;-75
2022/01/03 08:19:55;;;;;;;;;;;10.30;99.90;;;9.55;71.02;95726.34;10447033;28;1678;-76
2022/01/03 08:24:58;;;;;;;;;;;10.40;99.90;;;9.65;70.00;95743.25;10459052;28;1911;-77
2022/01/03 08:30:00;;;;;;;;;;;10.50;99.90;;;9.70;69.70;95745.13;10436368;28;1860;-75
2022/01/03 08:35:03;;;;;;;;;;;10.40;99.90;;;9.71;69.62;95739.47;10448452;28;1800;-76
2022/01/03 08:40:06;;;;;;;;;;;10.60;99.90;;;9.84;69.05;95743.50;10447728;28;1815;-75
2022/01/03 08:45:09;;;;;;;;;;;10.60;99.90;;;9.92;67.98;95728.72;10363615;23;3678;-71
2022/01/03 08:50:15;;;;;;;;;;;10.70;99.90;;;10.02;68.33;95731.41;10355246;28;2216;-72
2022/01/03 08:55:20;;;;;;;;;;;10.80;99.90;;;10.01;67.94;95735.19;10349067;28;1785;-73
2022/01/03 09:00:23;;;;;;;;;;;10.70;99.90;;;10.10;67.30;95722.81;10337016;28;1852;-71
2022/01/03 09:05:26;;;;;;;;;;;10.90;99.90;;;10.23;66.63;95726.84;10332156;28;1949;-71
2022/01/03 09:10:29;;;;;;;;;;;11.00;99.90;;;10.27;66.59;95726.03;10338413;28;1911;-71
2022/01/03 09:15:32;;;;;;;;;;;11.10;99.90;;;10.33;65.41;95723.34;10326772;28;1702;-71
2022/01/03 09:20:36;;;;;;;;;;;11.10;99.90;;;10.39;65.08;95719.56;10339750;28;1820;-71
2022/01/03 09:31:00;;;;;;;;;;;11.10;99.90;;;10.51;63.85;95717.38;10330164;28;1844;-71
2022/01/03 09:36:03;;;;;;;;;;;11.20;99.90;;;10.57;63.42;95721.66;10337097;28;1986;-71
2022/01/03 09:41:06;;;;;;;;;;;11.30;99.90;;;10.65;62.79;95718.38;10345829;28;1848;-70
2022/01/03 09:46:09;;;;;;;;;;;11.40;99.90;;;10.71;62.49;95724.56;10340968;28;1922;-70
2022/01/03 09:51:13;;;;;;;;;;;11.40;99.90;;;10.69;62.64;95713.28;10332432;28;1907;-72
2022/01/03 09:56:16;;;;;;;;;;;11.50;99.90;;;10.88;62.10;95716.13;10327570;28;1943;-71
2022/01/03 10:01:19;;;;;;;;;;;11.50;99.90;;;11.01;62.15;95707.47;10329753;28;1920;-72
2022/01/03 10:06:24;;;;;;;;;;;11.70;99.90;;;11.02;61.86;95712.56;10335932;28;1919;-71
2022/01/03 10:11:27;;;;;;;;;;;11.70;99.90;;;11.08;62.23;95694.53;10337511;28;1840;-73
2022/01/03 10:16:30;;;;;;;;;;;11.80;99.90;;;11.10;61.64;95703.09;10332222;28;1859;-73
2022/01/03 10:21:53;;;;;;;;;;;11.90;99.90;;;11.10;61.74;95687.75;10346822;28;1978;-71
2022/01/03 10:26:57;;;;;;;;;;;11.90;99.90;;;11.32;60.87;95684.69;10354173;28;1812;-73
2022/01/03 10:32:00;;;;;;;;;;;12.00;99.90;;;11.34;60.17;95698.66;10342823;28;1871;-70
2022/01/03 10:37:04;;;;;;;;;;;12.10;99.90;;;11.30;59.27;95680.63;10345957;28;1860;-72
2022/01/03 10:42:07;;;;;;;;;;;12.10;99.90;;;11.29;60.12;95693.28;10345212;28;1960;-70
2022/01/03 10:47:10;;;;;;;;;;;12.10;99.90;;;11.28;59.50;95683.63;10349323;28;1872;-70
2022/01/03 10:52:13;;;;;;;;;;;12.20;99.90;;;11.24;59.84;95681.75;10339838;28;1812;-70
2022/01/03 10:57:16;;;;;;;;;;;12.10;99.90;;;11.46;59.51;95694.81;10333960;28;2240;-71
2022/01/03 11:02:19;;;;;;;;;;;12.10;99.90;;;11.43;59.85;95682.69;10347382;28;1895;-70
2022/01/03 11:12:43;;;;;;;;;;;12.20;99.90;;;11.67;59.27;95672.00;10330862;28;1638;-71
2022/01/03 11:17:47;;;;;;;;;;;12.40;99.90;;;11.53;59.91;95662.97;10329949;28;1967;-71
2022/01/03 11:22:50;;;;;;;;;;;12.30;99.90;;;11.54;59.65;95659.19;10334065;28;1981;-71
2022/01/03 11:27:52;;;;;;;;;;;12.30;99.90;;;11.66;59.90;95645.38;10330565;28;1805;-74
2022/01/03 11:32:56;;;;;;;;;;;12.30;99.90;;;11.58;59.15;95628.75;10326305;28;1966;-74
2022/01/03 11:37:59;;;;;;;;;;;12.40;99.90;;;11.56;60.09;95624.72;10324493;28;1803;-74
2022/01/03 11:43:02;;;;;;;;;;;12.30;99.90;;;11.55;59.82;95615.03;10344919;28;1973;-73
2022/01/03 11:48:05;;;;;;;;;;;12.30;99.90;;;11.55;59.82;95626.59;10332956;28;1813;-74
2022/01/03 11:53:08;;;;;;;;;;;12.30;99.90;;;11.77;59.27;95623.47;10330940;28;1943;-73
2022/01/03 11:58:20;;;;;;;;;;;12.40;99.90;;;11.44;59.77;95610.81;10330261;28;1880;-73
2022/01/03 12:08:43;;;;;;;;;;;12.30;99.90;;;11.62;59.47;95602.84;10325566;28;1933;-74
2022/01/03 12:13:46;;;;;;;;;;;12.40;99.90;;;11.78;58.97;95595.44;10322959;28;1847;-73
2022/01/03 12:18:49;;;;;;;;;;;12.50;99.90;;;11.69;57.86;95580.97;10333335;28;1912;-71
2022/01/03 12:23:53;;;;;;;;;;;12.50;99.90;;;11.61;58.01;95584.28;10341287;28;1985;-71
2022/01/03 12:28:56;;;;;;;;;;;12.40;99.90;;;11.67;58.03;95577.78;10336071;28;1816;-72
2022/01/03 12:33:59;;;;;;;;;;;12.40;99.90;;;11.58;57.41;95579.50;10324557;28;2355;-70
2022/01/03 12:39:02;;;;;;;;;;;12.40;99.90;;;11.49;57.97;95586.56;10319911;28;1868;-70
2022/01/03 12:44:05;;;;;;;;;;;12.30;99.90;;;11.35;57.75;95573.75;10323713;28;1914;-70
2022/01/03 12:49:08;;;;;;;;;;;12.20;99.90;;;11.26;58.14;95580.84;10307702;28;1987;-70
2022/01/03 12:54:12;;;;;;;;;;;12.10;99.90;;;11.21;59.21;95580.88;10315075;28;1816;-70
2022/01/03 12:59:15;;;;;;;;;;;12.10;99.90;;;11.03;59.73;95574.31;10315109;28;1879;-70
2022/01/03 13:04:19;;;;;;;;;;;11.90;99.90;;;11.04;59.23;95556.28;10320773;28;2011;-70
2022/01/03 13:09:25;;;;;;;;;;;12.00;99.90;;;11.05;59.35;95565.94;10329372;28;1829;-69
2022/01/03 13:14:28;;;;;;;;;;;11.90;99.90;;;11.05;59.61;95565.94;10329732;28;1867;-70
2022/01/03 13:19:32;;;;;;;;;;;11.90;99.90;;;11.06;59.25;95576.41;10331349;28;1866;-69
2022/01/03 13:24:35;;;;;;;;;;;11.90;99.90;;;11.05;59.41;95561.38;10334692;28;1910;-70
2022/01/03 13:29:38;;;;;;;;;;;11.90;99.90;;;11.00;60.16;95552.53;10324211;28;1836;-73
2022/01/03 13:34:41;;;;;;;;;;;11.90;99.90;;;11.01;59.63;95543.41;10329611;28;1816;-72
2022/01/03 13:39:44;;;;;;;;;;;11.80;99.90;;;10.92;60.77;95545.06;10320600;28;1757;-71
2022/01/03 13:50:10;;;;;;;;;;;11.70;99.90;;;10.89;60.33;95535.69;10319618;28;1902;-72
2022/01/03 13:55:13;;;;;;;;;;;11.80;99.90;;;10.77;60.85;95532.56;10330768;28;1817;-71
2022/01/03 14:00:18;;;;;;;;;;;11.70;99.90;;;10.87;60.75;95531.66;10323213;28;1792;-71
2022/01/03 14:05:21;;;;;;;;;;;11.70;99.90;;;10.71;61.07;95517.53;10323487;28;1971;-71
2022/01/03 14:10:24;;;;;;;;;;;11.60;99.90;;;10.69;61.26;95542.03;10324179;28;1730;-72
2022/01/03 14:15:27;;;;;;;;;;;11.60;99.90;;;10.68;61.10;95529.63;10321880;28;1847;-72
2022/01/03 14:20:30;;;;;;;;;;;11.60;99.90;;;10.65;61.04;95524.03;10326584;28;1864;-72
2022/01/03 14:25:33;;;;;;;;;;;11.60;99.90;;;10.56;60.35;95515.78;10328205;28;1965;-72
2022/01/03 14:30:36;;;;;;;;;;;11.40;99.90;;;10.58;60.61;95512.81;10318651;28;1777;-71
2022/01/03 14:35:40;;;;;;;;;;;11.40;99.90;;;10.54;60.13;95497.22;10331660;28;1842;-71
2022/01/03 14:40:42;;;;;;;;;;;11.40;99.90;;;10.54;59.99;95499.09;10328321;28;1797;-71
2022/01/03 14:45:47;;;;;;;;;;;11.40;99.90;;;10.50;59.79;95485.44;10318615;28;2200;-70
2022/01/03 14:50:50;;;;;;;;;;;11.40;99.90;;;10.39;58.69;95478.53;10315408;28;1880;-71
2022/01/03 14:55:53;;;;;;;;;;;11.40;99.90;;;10.36;58.53;95480.97;10310775;28;2026;-70
2022/01/03 15:00:57;;;;;;;;;;;11.30;99.90;;;10.23;58.09;95479.69;10310222;28;1911;-72
2022/01/03 15:06:00;;;;;;;;;;;11.20;99.90;;;10.14;57.96;95475.97;10320344;28;1980;-71
2022/01/03 15:11:03;;;;;;;;;;;11.10;99.90;;;9.94;58.38;95463.47;10321157;28;1790;-71
2022/01/03 15:16:06;;;;;;;;;;;11.00;99.90;;;9.84;58.56;95458.13;10324358;28;1766;-72
2022/01/03 15:21:09;;;;;;;;;;;10.80;99.90;;;9.75;58.25;95453.34;10341687;28;1886;-72
2022/01/03 15:26:13;;;;;;;;;;;10.80;99.90;;;9.67;58.72;95445.88;10327504;28;1989;-72
2022/01/03 15:31:16;;;;;;;;;;;10.60;99.90;;;9.56;59.31;95422.84;10384019;23;1874;-75
2022/01/03 15:36:19;;;;;;;;;;;10.50;99.90;;;9.50;58.46;95428.50;10361914;28;2397;-74
2022/01/03 15:41:23;;;;;;;;;;;10.50;99.90;;;9.48;58.35;95426.13;10366772;28;1926;-75
2022/01/03 15:46:26;;;;;;;;;;;10.50;99.90;;;9.35;58.44;95418.63;10364404;28;2285;-74
2022/01/03 15:51:30;;;;;;;;;;;10.30;99.90;;;9.35;58.20;95432.88;10364693;28;1847;-74
2022/01/03 15:56:33;;;;;;;;;;;10.30;99.90;;;9.34;58.50;95399.03;10365382;28;1657;-75
2022/01/03 16:01:36;;;;;;;;;;;10.30;99.90;;;9.28;57.79;95393.97;10363369;28;1795;-74
2022/01/03 16:06:39;;;;;;;;;;;10.30;99.90;;;9.19;57.92;95394.56;10361872;28;1915;-73
2022/01/03 16:11:42;;;;;;;;;;;10.20;99.90;;;9.19;57.94;95391.06;10359262;28;1877;-75
2022/01/03 16:16:45;;;;;;;;;;;10.20;99.90;;;9.21;57.37;95391.59;10367374;28;2162;-75
2022/01/03 16:21:49;;;;;;;;;;;10.10;99.90;;;9.19;58.04;95389.19;10375835;28;1756;-74
2022/01/03 16:26:52;;;;;;;;;;;10.20;99.90;;;9.19;57.96;95388.38;10361523;28;1981;-74
2022/01/03 16:31:55;;;;;;;;;;;10.10;99.90;;;9.20;58.21;95387.31;10366632;28;1847;-74
2022/01/03 16:36:58;;;;;;;;;;;10.10;99.90;;;9.20;58.61;95374.69;10367718;28;1835;-73
2022/01/03 16:42:02;;;;;;;;;;;10.10;99.90;;;9.24;58.94;95371.47;10373483;28;1905;-73
2022/01/03 16:47:05;;;;;;;;;;;10.10;99.90;;;9.16;59.09;95354.88;10366228;28;1978;-74
2022/01/03 16:52:08;;;;;;;;;;;10.10;99.90;;;9.11;60.01;95357.59;10363363;28;2070;-75
2022/01/03 16:57:11;;;;;;;;;;;10.10;99.90;;;9.09;60.36;95348.19;10366228;28;1883;-75
2022/01/03 17:02:14;;;;;;;;;;;10.10;99.90;;;9.04;60.64;95334.84;10366798;28;1831;-75
2022/01/03 17:07:17;;;;;;;;;;;10.00;99.90;;;9.00;60.81;95334.56;10377463;28;1914;-75
2022/01/03 17:12:20;;;;;;;;;;;9.90;99.90;;;8.92;60.74;95329.78;10382693;28;1799;-75
2022/01/03 17:17:23;;;;;;;;;;;9.90;99.90;;;9.01;60.32;95324.63;10368216;28;1829;-75
2022/01/03 17:22:27;;;;;;;;;;;9.90;99.90;;;8.94;61.05;95320.38;10362165;28;1890;-75
2022/01/03 17:27:30;;;;;;;;;;;9.90;99.90;;;8.91;61.24;95309.41;10371666;28;1942;-76
2022/01/03 17:32:33;;;;;;;;;;;9.90;99.90;;;8.77;61.07;95298.44;10368164;28;1871;-76
2022/01/03 17:37:35;;;;;;;;;;;9.80;99.90;;;8.72;61.09;95295.00;10363303;28;2008;-75
2022/01/03 17:42:38;;;;;;;;;;;9.70;99.90;;;8.55;62.02;95301.47;10356803;28;1998;-76
2022/01/03 17:47:42;;;;;;;;;;;9.70;99.90;;;8.46;62.61;95303.13;10364821;28;1891;-74
2022/01/03 17:52:46;;;;;;;;;;;9.60;99.90;;;8.33;63.45;95295.59;10355176;28;1847;-75
2022/01/03 17:57:48;;;;;;;;;;;9.40;99.90;;;8.21;63.55;95292.41;10365966;28;1898;-75
2022/01/03 18:02:52;;;;;;;;;;;9.40;99.90;;;8.09;65.28;95282.78;10359614;28;1866;-74
2022/01/03 18:07:55;;;;;;;;;;;9.20;99.90;;;8.03;65.42;95275.84;10357790;28;1918;-72
2022/01/03 18:13:01;;;;;;;;;;;9.10;99.90;;;8.04;65.11;95257.91;10358685;28;1799;-73
2022/01/03 18:18:04;;;;;;;;;;;9.10;99.90;;;8.09;65.58;95256.03;10357669;28;1839;-73
2022/01/03 18:23:07;;;;;;;;;;;9.00;99.90;;;8.07;65.81;95247.44;10359079;28;1881;-71
2022/01/03 18:28:10;;;;;;;;;;;9.10;99.90;;;8.11;64.95;95248.50;10354931;28;1906;-73
2022/01/03 18:33:15;;;;;;;;;;;9.10;99.90;;;8.11;65.29;95242.34;10369087;28;1474;-73
2022/01/03 18:38:18;;;;;;;;;;;9.10;99.90;;;8.10;65.13;95249.59;10360341;28;1433;-74
2022/01/03 18:43:23;;;;;;;;;;;9.10;99.90;;;8.17;64.34;95254.66;10352758;28;1271;-73
2022/01/03 18:48:26;;;;;;;;;;;9.10;99.90;;;8.17;64.57;95251.19;10348405;28;1971;-76
2022/01/03 18:53:29;;;;;;;;;;;9.10;99.90;;;8.38;63.74;95236.69;10358815;28;1735;-73
2022/01/03 18:58:32;;;;;;;;;;;9.40;99.90;;;8.50;63.08;95237.19;10353497;28;1387;-72
2022/01/03 19:03:36;;;;;;;;;;;9.50;99.90;;;8.56;63.08;95232.63;10358739;28;1281;-72
2022/01/03 19:08:39;;;;;;;;;;;9.50;99.90;;;8.58;63.03;95230.47;10359714;28;1976;-73
2022/01/03 19:13:43;;;;;;;;;;;9.60;99.90;;;8.66;62.71;95227.22;10359420;28;1194;-73
2022/01/03 19:18:46;;;;;;;;;;;9.60;99.90;;;8.65;63.18;95209.53;10361112;28;1434;-72
2022/01/03 19:23:49;;;;;;;;;;;9.70;99.90;;;8.69;63.48;95212.47;10359066;28;1884;-74
2022/01/03 19:28:53;;;;;;;;;;;9.70;99.90;;;8.72;63.28;95211.94;10355564;28;1974;-71
2022/01/03 19:39:16;;;;;;;;;;;9.70;99.90;;;8.78;63.61;95197.41;10357319;28;1905;-75
2022/01/03 19:44:20;;;;;;;;;;;9.80;99.90;;;8.75;64.13;95185.38;10358520;28;1918;-73
2022/01/03 19:49:23;;;;;;;;;;;9.90;99.90;;;8.68;64.79;95176.84;10357684;28;1890;-73
2022/01/03 19:54:26;;;;;;;;;;;9.80;99.90;;;8.53;65.61;95183.09;10357712;28;1835;-73
2022/01/03 19:59:31;;;;;;;;;;;9.70;99.90;;;8.46;65.55;95168.38;10356273;28;1890;-72
2022/01/03 20:04:34;;;;;;;;;;;9.60;99.90;;;8.43;65.94;95148.31;10361109;28;1902;-75
2022/01/03 20:09:39;;;;;;;;;;;9.50;99.90;;;8.31;66.71;95147.78;10363103;28;1951;-74
2022/01/03 20:14:43;;;;;;;;;;;9.50;99.90;;;8.35;66.38;95135.47;10369882;28;1824;-73
2022/01/03 20:19:46;;;;;;;;;;;9.50;99.90;;;8.27;66.33;95126.13;10356360;28;1915;-74
2022/01/03 20:24:49;;;;;;;;;;;9.40;99.90;;;8.22;67.48;95125.34;10363329;28;1973;-74
2022/01/03 20:29:52;;;;;;;;;;;9.30;99.90;;;8.16;67.25;95110.38;10359925;28;1889;-76
2022/01/03 20:34:56;;;;;;;;;;;9.30;99.90;;;8.06;67.61;95106.66;10365322;28;1842;-74
2022/01/03 20:39:59;;;;;;;;;;;9.30;99.90;;;8.08;67.91;95109.88;10359011;28;1823;-73
2022/01/03 20:45:02;;;;;;;;;;;9.40;99.90;;;8.01;68.20;95108.53;10358457;28;1906;-74
2022/01/03 20:50:06;;;;;;;;;;;9.20;99.90;;;8.10;67.53;95102.34;10363743;28;1878;-74
2022/01/03 20:55:09;;;;;;;;;;;9.40;99.90;;;8.23;67.24;95097.50;10363799;28;1994;-73
2022/01/03 21:00:12;;;;;;;;;;;9.30;99.90;;;8.34;66.84;95086.47;10360389;28;1929;-76
2022/01/03 21:05:15;;;;;;;;;;;9.30;99.90;;;8.39;66.74;95099.81;10360060;28;1971;-74
2022/01/03 21:10:21;;;;;;;;;;;9.40;99.90;;;8.37;66.93;95085.91;10359846;28;1802;-74
2022/01/03 21:15:25;;;;;;;;;;;9.40;99.90;;;8.41;66.65;95091.53;10360428;28;1866;-75
2022/01/03 21:20:27;;;;;;;;;;;9.50;99.90;;;8.47;65.81;95086.97;10345917;28;1822;-73
2022/01/03 21:25:31;;;;;;;;;;;9.50;99.90;;;8.50;66.12;95083.72;10356475;28;2408;-74
2022/01/03 21:30:34;;;;;;;;;;;9.50;99.90;;;8.43;66.63;95073.31;10365463;28;1795;-75
2022/01/03 21:35:37;;;;;;;;;;;9.50;99.90;;;8.45;66.64;95068.47;10362974;28;1867;-75
2022/01/03 21:40:40;;;;;;;;;;;9.50;99.90;;;8.56;66.09;95067.34;10360975;28;2137;-74
2022/01/03 21:45:44;;;;;;;;;;;9.60;99.90;;;8.61;65.65;95058.47;10352008;28;2275;-74
2022/01/03 21:50:47;;;;;;;;;;;9.60;99.90;;;8.70;65.99;95047.94;10366076;28;2329;-75
2022/01/03 21:55:50;;;;;;;;;;;9.70;99.90;;;8.72;65.48;95051.97;10383221;28;1901;-74
2022/01/03 22:00:54;;;;;;;;;;;9.70;99.90;;;8.77;65.80;95056.47;10382616;28;1785;-74
2022/01/03 22:05:57;;;;;;;;;;;9.70;99.90;;;8.80;68.61;95055.94;10373714;28;1926;-75
2022/01/03 22:11:01;;;;;;;;;;;9.80;99.90;;;8.65;71.74;95040.75;10370945;28;1803;-75
2022/01/03 22:16:04;;;;;;;;;;;9.70;99.90;;;8.52;73.34;95034.13;10377005;23;2846;-72
2022/01/03 22:21:08;;;;;;;;;;;9.60;99.90;;;8.46;76.09;95032.59;10361331;28;1910;-71
2022/01/03 22:26:11;;;;;;;;;;;9.60;99.90;;;8.31;78.14;95017.38;10328570;28;1985;-71
2022/01/03 22:31:14;;;;;;;;;;;9.50;99.90;;;8.28;77.13;95006.44;10315218;28;2213;-71
2022/01/03 22:36:18;;;;;;;;;;;9.40;99.90;;;8.31;79.01;95005.88;10324331;28;1872;-73
2022/01/03 22:41:20;;;;;;;;;;;9.30;99.90;;;8.28;80.32;94995.72;10317157;28;1931;-72
2022/01/03 22:46:24;;;;;;;;;;;9.40;99.90;;;8.26;81.04;94982.59;10321302;28;1985;-72
2022/01/03 22:51:27;;;;;;;;;;;9.30;99.90;;;8.20;81.56;94967.63;10322063;28;1840;-73
2022/01/03 22:56:30;;;;;;;;;;;9.30;99.90;;;8.20;82.97;94962.28;10319426;28;1915;-72
2022/01/03 23:01:34;;;;;;;;;;;9.30;99.90;;;8.21;83.43;94957.75;10325984;28;1899;-74
2022/01/03 23:06:37;;;;;;;;;;;9.30;99.90;;;8.24;85.71;94943.78;10330142;28;1960;-73
2022/01/03 23:11:40;;;;;;;;;;;9.60;99.90;;;8.23;87.32;94936.84;10326368;28;2427;-73
2022/01/03 23:16:45;;;;;;;;;;;9.30;99.90;;;8.24;86.84;94912.47;10319580;28;1907;-72
2022/01/03 23:21:49;;;;;;;;;;;9.20;99.90;;;8.30;82.98;94907.88;10325896;28;1630;-73
2022/01/03 23:26:52;;;;;;;;;;;9.30;99.90;;;8.34;82.64;94900.88;10322313;28;1981;-73
2022/01/03 23:31:56;;;;;;;;;;;9.30;99.90;;;8.44;81.58;94881.28;10320843;28;1785;-73
2022/01/03 23:36:59;;;;;;;;;;;9.40;99.90;;;8.54;80.02;94881.19;10323159;28;2276;-72
2022/01/03 23:42:02;;;;;;;;;;;9.50;99.90;;;8.64;78.42;94871.16;10332828;28;1833;-73
2022/01/03 23:47:05;;;;;;;;;;;9.60;99.90;;;8.54;82.38;94863.25;10325759;28;1914;-72
2022/01/03 23:52:08;;;;;;;;;;;9.60;99.90;;;8.37;85.66;94865.53;10331283;28;1805;-72
2022/01/03 23:57:11;;;;;;;;;;;9.60;99.90;;;8.25;87.47;94860.50;10335336;28;1847;-73
